KMIC/MIC METAR and TAF weather

Enter ICAO airport designator
Station Type Date Time Source
KMIC METAR 2019/04/18 22:53 UTC NOAA

KMIC 182253Z 36010KT 10SM SCT039 BKN049 BKN055 11/03 A2989 RMK AO2 SLP125 T01110028


Station Type Date Time Source
KMIC Decoded METAR 2019/04/18 22:53 UTC NOAA

CRYSTAL AIRPORT, MN, United States (KMIC) 45-04N 093-21W 265M
Apr 18, 2019 - 06:53 PM EDT / 2019.04.18 2253 UTC
Wind: from the N (360 degrees) at 12 MPH (10 KT):0
Visibility: 10 mile(s):0
Sky conditions: mostly cloudy
Temperature: 52.0 F (11.1 C)
Dew Point: 37.0 F (2.8 C)
Relative Humidity: 56%
Pressure (altimeter): 29.89 in. Hg (1012 hPa)
ob: KMIC 182253Z 36010KT 10SM SCT039 BKN049 BKN055 11/03 A2989 RMK AO2 SLP125 T01110028
cycle: 23

Station Type Date Time Source
KMIC TAF UTC NOAA

Error!

Example: see airport list